sensor_id;sensor_type;location;lat;lon;timestamp;pressure;altitude;pressure_sealevel;temperature;humidity
80323;BME280;69636;52.372;13.610;2023-06-22T00:01:00;101608.41;;;18.75;85.60
80323;BME280;69636;52.372;13.610;2023-06-22T00:03:29;101603.41;;;18.86;85.50
80323;BME280;69636;52.372;13.610;2023-06-22T00:05:56;101604.06;;;18.88;85.51
80323;BME280;69636;52.372;13.610;2023-06-22T00:08:25;101606.91;;;19.02;84.40
80323;BME280;69636;52.372;13.610;2023-06-22T00:10:52;101613.69;;;18.97;84.51
80323;BME280;69636;52.372;13.610;2023-06-22T00:13:19;101617.31;;;18.90;85.00
80323;BME280;69636;52.372;13.610;2023-06-22T00:15:47;101613.06;;;18.81;85.19
80323;BME280;69636;52.372;13.610;2023-06-22T00:18:14;101616.13;;;18.92;84.50
80323;BME280;69636;52.372;13.610;2023-06-22T00:20:42;101616.75;;;18.80;85.52
80323;BME280;69636;52.372;13.610;2023-06-22T00:23:09;101613.59;;;18.76;85.61
80323;BME280;69636;52.372;13.610;2023-06-22T00:25:38;101617.31;;;18.75;85.80
80323;BME280;69636;52.372;13.610;2023-06-22T00:28:06;101623.81;;;18.66;86.10
80323;BME280;69636;52.372;13.610;2023-06-22T00:30:34;101629.63;;;18.55;86.38
80323;BME280;69636;52.372;13.610;2023-06-22T00:33:01;101635.81;;;18.55;86.35
80323;BME280;69636;52.372;13.610;2023-06-22T00:35:29;101634.75;;;18.64;86.27
80323;BME280;69636;52.372;13.610;2023-06-22T00:37:57;101637.22;;;18.51;86.67
80323;BME280;69636;52.372;13.610;2023-06-22T00:40:26;101633.44;;;18.75;85.44
80323;BME280;69636;52.372;13.610;2023-06-22T00:42:55;101632.13;;;18.56;86.20
80323;BME280;69636;52.372;13.610;2023-06-22T00:45:23;101636.84;;;18.40;86.88
80323;BME280;69636;52.372;13.610;2023-06-22T00:47:51;101635.16;;;18.39;87.57
80323;BME280;69636;52.372;13.610;2023-06-22T00:50:21;101632.84;;;18.36;87.59
80323;BME280;69636;52.372;13.610;2023-06-22T00:52:52;101635.06;;;18.32;87.61
80323;BME280;69636;52.372;13.610;2023-06-22T00:55:23;101630.81;;;18.52;86.53
80323;BME280;69636;52.372;13.610;2023-06-22T00:57:50;101641.47;;;18.46;86.43
80323;BME280;69636;52.372;13.610;2023-06-22T01:00:21;101642.50;;;18.45;86.80
80323;BME280;69636;52.372;13.610;2023-06-22T01:02:50;101636.19;;;18.38;87.29
80323;BME280;69636;52.372;13.610;2023-06-22T01:05:19;101640.38;;;18.55;86.63
80323;BME280;69636;52.372;13.610;2023-06-22T01:07:58;101651.00;;;18.48;86.74
80323;BME280;69636;52.372;13.610;2023-06-22T01:10:32;101656.50;;;18.55;86.25
80323;BME280;69636;52.372;13.610;2023-06-22T01:13:04;101653.59;;;18.64;86.12
80323;BME280;69636;52.372;13.610;2023-06-22T01:15:39;101648.75;;;18.60;86.21
80323;BME280;69636;52.372;13.610;2023-06-22T01:18:08;101650.72;;;18.66;85.49
80323;BME280;69636;52.372;13.610;2023-06-22T01:20:37;101651.19;;;18.70;86.03
80323;BME280;69636;52.372;13.610;2023-06-22T01:23:11;101648.66;;;18.83;84.89
80323;BME280;69636;52.372;13.610;2023-06-22T01:25:46;101652.13;;;18.91;84.32
80323;BME280;69636;52.372;13.610;2023-06-22T01:28:24;101653.78;;;18.92;84.36
80323;BME280;69636;52.372;13.610;2023-06-22T01:30:55;101654.03;;;18.97;84.98
80323;BME280;69636;52.372;13.610;2023-06-22T01:33:22;101669.94;;;18.92;85.38
80323;BME280;69636;52.372;13.610;2023-06-22T01:35:50;101655.47;;;18.93;85.02
80323;BME280;69636;52.372;13.610;2023-06-22T01:38:17;101660.47;;;18.96;84.74
80323;BME280;69636;52.372;13.610;2023-06-22T01:40:45;101665.09;;;19.03;85.49
80323;BME280;69636;52.372;13.610;2023-06-22T01:43:13;101664.63;;;18.99;84.97
80323;BME280;69636;52.372;13.610;2023-06-22T01:45:40;101659.75;;;19.39;82.52
80323;BME280;69636;52.372;13.610;2023-06-22T01:48:10;101668.69;;;19.24;83.75
80323;BME280;69636;52.372;13.610;2023-06-22T01:50:37;101671.03;;;19.13;84.58
80323;BME280;69636;52.372;13.610;2023-06-22T01:53:05;101675.75;;;19.11;84.41
80323;BME280;69636;52.372;13.610;2023-06-22T01:55:33;101667.69;;;19.11;84.82
80323;BME280;69636;52.372;13.610;2023-06-22T01:58:00;101671.41;;;19.10;84.81
80323;BME280;69636;52.372;13.610;2023-06-22T02:00:31;101669.06;;;19.07;84.55
80323;BME280;69636;52.372;13.610;2023-06-22T02:03:05;101666.47;;;19.13;84.75
80323;BME280;69636;52.372;13.610;2023-06-22T02:05:41;101667.31;;;19.14;84.93
80323;BME280;69636;52.372;13.610;2023-06-22T02:08:11;101667.88;;;19.09;84.94
80323;BME280;69636;52.372;13.610;2023-06-22T02:10:44;101675.03;;;19.17;84.85
80323;BME280;69636;52.372;13.610;2023-06-22T02:13:13;101676.41;;;19.13;85.25
80323;BME280;69636;52.372;13.610;2023-06-22T02:15:41;101676.03;;;19.16;85.39
80323;BME280;69636;52.372;13.610;2023-06-22T02:18:09;101673.06;;;19.11;85.46
80323;BME280;69636;52.372;13.610;2023-06-22T02:20:40;101685.88;;;19.09;84.96
80323;BME280;69636;52.372;13.610;2023-06-22T02:23:08;101678.44;;;19.11;85.05
80323;BME280;69636;52.372;13.610;2023-06-22T02:25:36;101680.13;;;19.12;84.83
80323;BME280;69636;52.372;13.610;2023-06-22T02:28:04;101691.91;;;19.11;85.08
80323;BME280;69636;52.372;13.610;2023-06-22T02:30:31;101693.75;;;19.10;84.60
80323;BME280;69636;52.372;13.610;2023-06-22T02:33:01;101704.78;;;19.01;85.43
80323;BME280;69636;52.372;13.610;2023-06-22T02:35:28;101695.69;;;19.02;85.88
80323;BME280;69636;52.372;13.610;2023-06-22T02:37:58;101690.44;;;18.93;86.17
80323;BME280;69636;52.372;13.610;2023-06-22T02:40:25;101702.09;;;19.01;85.91
80323;BME280;69636;52.372;13.610;2023-06-22T02:42:53;101694.50;;;19.19;84.35
80323;BME280;69636;52.372;13.610;2023-06-22T02:45:21;101693.50;;;19.20;84.50
80323;BME280;69636;52.372;13.610;2023-06-22T02:47:48;101695.63;;;19.10;84.81
80323;BME280;69636;52.372;13.610;2023-06-22T02:50:16;101703.53;;;18.96;85.46
80323;BME280;69636;52.372;13.610;2023-06-22T02:52:43;101702.41;;;18.91;86.32
80323;BME280;69636;52.372;13.610;2023-06-22T02:55:13;101691.53;;;18.99;85.50
80323;BME280;69636;52.372;13.610;2023-06-22T02:57:40;101690.97;;;19.04;85.13
80323;BME280;69636;52.372;13.610;2023-06-22T03:00:10;101698.75;;;18.98;85.48
80323;BME280;69636;52.372;13.610;2023-06-22T03:02:37;101697.09;;;18.97;85.87
80323;BME280;69636;52.372;13.610;2023-06-22T03:05:05;101698.16;;;18.96;85.85
80323;BME280;69636;52.372;13.610;2023-06-22T03:07:32;101690.88;;;19.12;85.23
80323;BME280;69636;52.372;13.610;2023-06-22T03:10:00;101691.63;;;19.06;85.47
80323;BME280;69636;52.372;13.610;2023-06-22T03:12:30;101689.22;;;18.96;86.36
80323;BME280;69636;52.372;13.610;2023-06-22T03:14:57;101690.81;;;18.90;87.03
80323;BME280;69636;52.372;13.610;2023-06-22T03:17:24;101688.47;;;18.87;86.78
80323;BME280;69636;52.372;13.610;2023-06-22T03:19:52;101687.81;;;18.85;87.28
80323;BME280;69636;52.372;13.610;2023-06-22T03:22:19;101690.50;;;18.85;86.98
80323;BME280;69636;52.372;13.610;2023-06-22T03:24:47;101687.34;;;18.82;87.61
80323;BME280;69636;52.372;13.610;2023-06-22T03:27:14;101693.66;;;19.04;86.42
80323;BME280;69636;52.372;13.610;2023-06-22T03:29:43;101693.03;;;19.16;85.19
80323;BME280;69636;52.372;13.610;2023-06-22T03:32:10;101692.84;;;19.18;85.49
80323;BME280;69636;52.372;13.610;2023-06-22T03:34:37;101689.38;;;19.39;84.00
80323;BME280;69636;52.372;13.610;2023-06-22T03:37:05;101691.03;;;19.25;84.78
80323;BME280;69636;52.372;13.610;2023-06-22T03:39:32;101698.00;;;19.34;84.51
80323;BME280;69636;52.372;13.610;2023-06-22T03:41:59;101696.44;;;19.25;85.10
80323;BME280;69636;52.372;13.610;2023-06-22T03:44:27;101698.09;;;19.26;85.24
80323;BME280;69636;52.372;13.610;2023-06-22T03:46:56;101692.63;;;19.34;84.28
80323;BME280;69636;52.372;13.610;2023-06-22T03:49:24;101699.13;;;19.25;84.86
80323;BME280;69636;52.372;13.610;2023-06-22T03:51:51;101696.16;;;19.35;84.67
80323;BME280;69636;52.372;13.610;2023-06-22T03:54:18;101698.81;;;19.49;83.74
80323;BME280;69636;52.372;13.610;2023-06-22T03:56:46;101690.03;;;19.41;84.13
80323;BME280;69636;52.372;13.610;2023-06-22T03:59:13;101695.94;;;19.65;83.23
80323;BME280;69636;52.372;13.610;2023-06-22T04:01:40;101698.63;;;19.65;83.20
80323;BME280;69636;52.372;13.610;2023-06-22T04:04:09;101706.63;;;19.44;83.98
80323;BME280;69636;52.372;13.610;2023-06-22T04:06:36;101706.34;;;19.54;83.46
80323;BME280;69636;52.372;13.610;2023-06-22T04:09:05;101710.44;;;19.35;84.72
80323;BME280;69636;52.372;13.610;2023-06-22T04:11:32;101706.81;;;19.57;83.32
80323;BME280;69636;52.372;13.610;2023-06-22T04:14:00;101702.34;;;19.64;82.71
80323;BME280;69636;52.372;13.610;2023-06-22T04:16:27;101709.09;;;19.75;81.94
80323;BME280;69636;52.372;13.610;2023-06-22T04:18:54;101702.25;;;19.58;83.02
80323;BME280;69636;52.372;13.610;2023-06-22T04:21:23;101710.47;;;19.86;81.60
80323;BME280;69636;52.372;13.610;2023-06-22T04:23:51;101708.06;;;19.76;82.26
80323;BME280;69636;52.372;13.610;2023-06-22T04:26:18;101712.44;;;19.77;81.91
80323;BME280;69636;52.372;13.610;2023-06-22T04:28:45;101710.31;;;19.73;82.29
80323;BME280;69636;52.372;13.610;2023-06-22T04:31:12;101714.94;;;19.79;81.88
80323;BME280;69636;52.372;13.610;2023-06-22T04:33:41;101713.63;;;19.89;80.77
80323;BME280;69636;52.372;13.610;2023-06-22T04:36:08;101724.56;;;19.88;81.60
80323;BME280;69636;52.372;13.610;2023-06-22T04:38:37;101718.09;;;20.04;80.97
80323;BME280;69636;52.372;13.610;2023-06-22T04:41:04;101729.03;;;19.95;81.42
80323;BME280;69636;52.372;13.610;2023-06-22T04:43:33;101730.81;;;20.10;80.43
80323;BME280;69636;52.372;13.610;2023-06-22T04:46:01;101728.19;;;20.16;81.08
80323;BME280;69636;52.372;13.610;2023-06-22T04:48:28;101727.88;;;20.26;80.29
80323;BME280;69636;52.372;13.610;2023-06-22T04:50:55;101741.56;;;20.24;80.68
80323;BME280;69636;52.372;13.610;2023-06-22T04:53:23;101734.53;;;20.30;79.74
80323;BME280;69636;52.372;13.610;2023-06-22T04:55:51;101733.19;;;20.62;77.67
80323;BME280;69636;52.372;13.610;2023-06-22T04:58:19;101731.63;;;20.74;77.45
80323;BME280;69636;52.372;13.610;2023-06-22T05:00:46;101734.06;;;20.69;77.88
80323;BME280;69636;52.372;13.610;2023-06-22T05:03:17;101739.03;;;20.93;77.66
80323;BME280;69636;52.372;13.610;2023-06-22T05:05:47;101745.47;;;20.92;76.73
80323;BME280;69636;52.372;13.610;2023-06-22T05:08:14;101747.19;;;21.07;74.95
80323;BME280;69636;52.372;13.610;2023-06-22T05:10:41;101742.63;;;21.35;74.00
80323;BME280;69636;52.372;13.610;2023-06-22T05:13:30;101738.63;;;21.31;75.03
80323;BME280;69636;52.372;13.610;2023-06-22T05:15:58;101731.28;;;21.53;73.97
80323;BME280;69636;52.372;13.610;2023-06-22T05:18:25;101738.75;;;21.57;74.72
80323;BME280;69636;52.372;13.610;2023-06-22T05:20:53;101728.47;;;21.81;73.54
80323;BME280;69636;52.372;13.610;2023-06-22T05:23:20;101728.88;;;21.84;71.86
80323;BME280;69636;52.372;13.610;2023-06-22T05:25:48;101732.50;;;22.05;71.30
80323;BME280;69636;52.372;13.610;2023-06-22T05:28:15;101736.97;;;21.84;72.21
80323;BME280;69636;52.372;13.610;2023-06-22T05:30:44;101740.09;;;21.75;71.76
80323;BME280;69636;52.372;13.610;2023-06-22T05:33:11;101736.38;;;21.82;71.25
80323;BME280;69636;52.372;13.610;2023-06-22T05:35:38;101747.34;;;21.67;71.78
80323;BME280;69636;52.372;13.610;2023-06-22T05:38:06;101740.66;;;21.63;71.13
80323;BME280;69636;52.372;13.610;2023-06-22T05:40:33;101732.19;;;21.73;70.29
80323;BME280;69636;52.372;13.610;2023-06-22T05:43:00;101732.72;;;22.16;69.56
80323;BME280;69636;52.372;13.610;2023-06-22T05:45:28;101734.44;;;22.30;69.05
80323;BME280;69636;52.372;13.610;2023-06-22T05:47:56;101745.22;;;22.24;69.69
80323;BME280;69636;52.372;13.610;2023-06-22T05:50:24;101752.72;;;22.28;70.45
80323;BME280;69636;52.372;13.610;2023-06-22T05:52:53;101754.00;;;22.32;69.98
80323;BME280;69636;52.372;13.610;2023-06-22T05:55:20;101755.22;;;22.37;68.53
80323;BME280;69636;52.372;13.610;2023-06-22T05:57:48;101759.78;;;22.16;68.88
80323;BME280;69636;52.372;13.610;2023-06-22T06:00:16;101755.22;;;22.23;69.48
80323;BME280;69636;52.372;13.610;2023-06-22T06:02:43;101759.41;;;22.32;69.02
80323;BME280;69636;52.372;13.610;2023-06-22T06:05:13;101757.72;;;22.31;66.17
80323;BME280;69636;52.372;13.610;2023-06-22T06:07:40;101765.66;;;22.53;66.84
80323;BME280;69636;52.372;13.610;2023-06-22T06:10:07;101766.06;;;22.56;66.16
80323;BME280;69636;52.372;13.610;2023-06-22T06:12:35;101755.25;;;22.50;67.61
80323;BME280;69636;52.372;13.610;2023-06-22T06:15:02;101757.72;;;22.64;66.32
80323;BME280;69636;52.372;13.610;2023-06-22T06:17:31;101758.56;;;22.72;65.56
80323;BME280;69636;52.372;13.610;2023-06-22T06:19:59;101744.25;;;22.84;64.92
80323;BME280;69636;52.372;13.610;2023-06-22T06:22:28;101745.66;;;22.87;64.65
80323;BME280;69636;52.372;13.610;2023-06-22T06:24:55;101742.72;;;23.08;64.09
80323;BME280;69636;52.372;13.610;2023-06-22T06:27:22;101753.75;;;23.13;63.60
80323;BME280;69636;52.372;13.610;2023-06-22T06:29:49;101748.88;;;23.42;62.82
80323;BME280;69636;52.372;13.610;2023-06-22T06:32:17;101753.00;;;23.64;62.29
80323;BME280;69636;52.372;13.610;2023-06-22T06:34:47;101757.81;;;23.55;60.35
80323;BME280;69636;52.372;13.610;2023-06-22T06:37:14;101755.94;;;23.49;61.17
80323;BME280;69636;52.372;13.610;2023-06-22T06:39:43;101762.63;;;23.53;61.35
80323;BME280;69636;52.372;13.610;2023-06-22T06:42:11;101760.59;;;23.35;62.66
80323;BME280;69636;52.372;13.610;2023-06-22T06:44:38;101750.09;;;23.46;60.44
80323;BME280;69636;52.372;13.610;2023-06-22T06:47:06;101755.94;;;23.56;60.75
80323;BME280;69636;52.372;13.610;2023-06-22T06:49:33;101756.84;;;23.88;59.05
80323;BME280;69636;52.372;13.610;2023-06-22T06:52:00;101757.19;;;23.98;58.90
80323;BME280;69636;52.372;13.610;2023-06-22T06:54:28;101754.44;;;24.05;58.85
80323;BME280;69636;52.372;13.610;2023-06-22T06:56:56;101747.59;;;24.33;56.61
80323;BME280;69636;52.372;13.610;2023-06-22T06:59:24;101742.00;;;24.53;56.58
80323;BME280;69636;52.372;13.610;2023-06-22T07:01:51;101741.00;;;24.73;55.93
80323;BME280;69636;52.372;13.610;2023-06-22T07:04:19;101748.31;;;24.97;54.05
80323;BME280;69636;52.372;13.610;2023-06-22T07:06:46;101746.75;;;25.08;51.55
80323;BME280;69636;52.372;13.610;2023-06-22T07:09:14;101733.41;;;25.06;52.32
80323;BME280;69636;52.372;13.610;2023-06-22T07:11:43;101732.13;;;25.09;53.92
80323;BME280;69636;52.372;13.610;2023-06-22T07:14:11;101721.84;;;25.11;52.72
80323;BME280;69636;52.372;13.610;2023-06-22T07:16:39;101711.88;;;25.05;51.25
80323;BME280;69636;52.372;13.610;2023-06-22T07:19:07;101714.00;;;25.02;51.38
80323;BME280;69636;52.372;13.610;2023-06-22T07:21:36;101714.44;;;24.99;52.62
80323;BME280;69636;52.372;13.610;2023-06-22T07:24:04;101711.56;;;24.94;52.89
80323;BME280;69636;52.372;13.610;2023-06-22T07:26:31;101705.38;;;25.24;51.92
80323;BME280;69636;52.372;13.610;2023-06-22T07:28:59;101712.91;;;25.58;51.51
80323;BME280;69636;52.372;13.610;2023-06-22T07:31:28;101709.91;;;25.66;50.41
80323;BME280;69636;52.372;13.610;2023-06-22T07:33:55;101710.16;;;25.65;50.30
80323;BME280;69636;52.372;13.610;2023-06-22T07:36:22;101708.84;;;25.49;51.36
80323;BME280;69636;52.372;13.610;2023-06-22T07:38:50;101709.03;;;25.18;52.47
80323;BME280;69636;52.372;13.610;2023-06-22T07:41:17;101707.28;;;25.05;53.07
80323;BME280;69636;52.372;13.610;2023-06-22T07:43:44;101709.16;;;25.05;52.94
80323;BME280;69636;52.372;13.610;2023-06-22T07:46:11;101708.50;;;25.09;52.07
80323;BME280;69636;52.372;13.610;2023-06-22T07:48:41;101717.50;;;24.85;51.53
80323;BME280;69636;52.372;13.610;2023-06-22T07:51:08;101706.91;;;25.01;50.23
80323;BME280;69636;52.372;13.610;2023-06-22T07:53:35;101713.69;;;24.92;49.74
80323;BME280;69636;52.372;13.610;2023-06-22T07:56:03;101702.09;;;24.79;49.86
80323;BME280;69636;52.372;13.610;2023-06-22T07:58:31;101696.28;;;24.75;52.16
80323;BME280;69636;52.372;13.610;2023-06-22T08:00:59;101703.88;;;24.91;52.36
80323;BME280;69636;52.372;13.610;2023-06-22T08:03:26;101709.63;;;25.01;49.89
80323;BME280;69636;52.372;13.610;2023-06-22T08:05:54;101701.16;;;24.91;51.11
80323;BME280;69636;52.372;13.610;2023-06-22T08:08:22;101708.88;;;25.13;51.73
80323;BME280;69636;52.372;13.610;2023-06-22T08:10:49;101712.66;;;25.12;52.15
80323;BME280;69636;52.372;13.610;2023-06-22T08:13:18;101711.59;;;25.13;47.79
80323;BME280;69636;52.372;13.610;2023-06-22T08:15:46;101716.88;;;25.26;49.47
80323;BME280;69636;52.372;13.610;2023-06-22T08:18:16;101708.44;;;25.16;48.75
80323;BME280;69636;52.372;13.610;2023-06-22T08:20:44;101711.13;;;24.97;48.52
80323;BME280;69636;52.372;13.610;2023-06-22T08:23:13;101703.00;;;25.16;48.25
80323;BME280;69636;52.372;13.610;2023-06-22T08:25:41;101713.53;;;25.24;48.38
80323;BME280;69636;52.372;13.610;2023-06-22T08:28:08;101708.88;;;25.13;49.55
80323;BME280;69636;52.372;13.610;2023-06-22T08:30:35;101703.50;;;25.24;47.15
80323;BME280;69636;52.372;13.610;2023-06-22T08:33:02;101700.06;;;25.17;46.68
80323;BME280;69636;52.372;13.610;2023-06-22T08:35:30;101695.72;;;25.28;47.24
80323;BME280;69636;52.372;13.610;2023-06-22T08:37:58;101707.50;;;25.03;48.87
80323;BME280;69636;52.372;13.610;2023-06-22T08:40:26;101704.13;;;25.08;46.67
80323;BME280;69636;52.372;13.610;2023-06-22T08:42:55;101703.25;;;24.89;48.18
80323;BME280;69636;52.372;13.610;2023-06-22T08:45:22;101699.34;;;25.03;47.35
80323;BME280;69636;52.372;13.610;2023-06-22T08:47:49;101699.22;;;25.17;45.17
80323;BME280;69636;52.372;13.610;2023-06-22T08:50:16;101699.94;;;25.24;46.64
80323;BME280;69636;52.372;13.610;2023-06-22T08:52:45;101696.28;;;25.18;48.08
80323;BME280;69636;52.372;13.610;2023-06-22T08:55:12;101701.91;;;25.35;46.37
80323;BME280;69636;52.372;13.610;2023-06-22T08:57:42;101699.06;;;25.30;47.28
80323;BME280;69636;52.372;13.610;2023-06-22T09:00:11;101701.56;;;25.61;44.40
80323;BME280;69636;52.372;13.610;2023-06-22T09:02:38;101703.06;;;25.76;44.95
80323;BME280;69636;52.372;13.610;2023-06-22T09:05:06;101694.06;;;26.05;45.50
80323;BME280;69636;52.372;13.610;2023-06-22T09:07:35;101707.28;;;26.55;43.87
80323;BME280;69636;52.372;13.610;2023-06-22T09:10:03;101703.28;;;26.46;43.67
80323;BME280;69636;52.372;13.610;2023-06-22T09:12:30;101690.94;;;26.31;42.89
80323;BME280;69636;52.372;13.610;2023-06-22T09:14:59;101693.63;;;26.20;44.07
80323;BME280;69636;52.372;13.610;2023-06-22T09:17:27;101694.34;;;26.15;44.88
80323;BME280;69636;52.372;13.610;2023-06-22T09:19:55;101695.25;;;25.97;45.16
80323;BME280;69636;52.372;13.610;2023-06-22T09:22:23;101693.22;;;25.93;42.88
80323;BME280;69636;52.372;13.610;2023-06-22T09:24:50;101683.31;;;26.10;42.43
80323;BME280;69636;52.372;13.610;2023-06-22T09:27:18;101683.72;;;25.84;44.10
80323;BME280;69636;52.372;13.610;2023-06-22T09:29:45;101687.25;;;25.84;45.74
80323;BME280;69636;52.372;13.610;2023-06-22T09:32:14;101684.00;;;25.94;44.18
80323;BME280;69636;52.372;13.610;2023-06-22T09:34:41;101690.53;;;26.16;44.85
80323;BME280;69636;52.372;13.610;2023-06-22T09:37:09;101684.03;;;26.17;43.64
80323;BME280;69636;52.372;13.610;2023-06-22T09:39:36;101688.41;;;26.18;43.20
80323;BME280;69636;52.372;13.610;2023-06-22T09:42:03;101682.84;;;26.25;44.41
80323;BME280;69636;52.372;13.610;2023-06-22T09:44:30;101691.00;;;26.13;45.17
80323;BME280;69636;52.372;13.610;2023-06-22T09:46:58;101688.84;;;25.92;46.08
80323;BME280;69636;52.372;13.610;2023-06-22T09:49:26;101687.31;;;25.96;45.01
80323;BME280;69636;52.372;13.610;2023-06-22T09:52:13;101684.00;;;25.94;46.05
80323;BME280;69636;52.372;13.610;2023-06-22T09:54:40;101679.75;;;26.10;43.03
80323;BME280;69636;52.372;13.610;2023-06-22T09:57:08;101680.91;;;26.02;44.01
80323;BME280;69636;52.372;13.610;2023-06-22T09:59:35;101681.91;;;26.19;41.99
80323;BME280;69636;52.372;13.610;2023-06-22T10:02:02;101679.00;;;26.32;43.37
80323;BME280;69636;52.372;13.610;2023-06-22T10:04:31;101683.50;;;26.39;42.98
80323;BME280;69636;52.372;13.610;2023-06-22T10:06:59;101669.25;;;26.25;44.93
80323;BME280;69636;52.372;13.610;2023-06-22T10:09:26;101684.69;;;26.43;44.97
80323;BME280;69636;52.372;13.610;2023-06-22T10:11:54;101680.81;;;26.50;44.92
80323;BME280;69636;52.372;13.610;2023-06-22T10:14:22;101677.47;;;26.36;44.94
80323;BME280;69636;52.372;13.610;2023-06-22T10:16:51;101684.69;;;26.43;44.27
80323;BME280;69636;52.372;13.610;2023-06-22T10:19:18;101671.06;;;26.66;43.16
80323;BME280;69636;52.372;13.610;2023-06-22T10:21:47;101671.06;;;26.66;42.76
80323;BME280;69636;52.372;13.610;2023-06-22T10:24:14;101664.69;;;26.49;44.45
80323;BME280;69636;52.372;13.610;2023-06-22T10:26:42;101667.41;;;26.37;46.05
80323;BME280;69636;52.372;13.610;2023-06-22T10:29:09;101673.69;;;26.38;44.50
80323;BME280;69636;52.372;13.610;2023-06-22T10:31:43;101672.22;;;26.23;45.80
80323;BME280;69636;52.372;13.610;2023-06-22T10:34:10;101661.22;;;26.18;45.41
80323;BME280;69636;52.372;13.610;2023-06-22T10:36:38;101663.28;;;26.04;47.00
80323;BME280;69636;52.372;13.610;2023-06-22T10:39:07;101662.28;;;26.17;45.57
80323;BME280;69636;52.372;13.610;2023-06-22T10:41:35;101659.41;;;26.12;45.71
80323;BME280;69636;52.372;13.610;2023-06-22T10:44:02;101653.41;;;26.22;46.60
80323;BME280;69636;52.372;13.610;2023-06-22T10:46:30;101641.91;;;26.08;45.46
80323;BME280;69636;52.372;13.610;2023-06-22T10:48:57;101645.22;;;26.10;44.21
80323;BME280;69636;52.372;13.610;2023-06-22T10:51:26;101643.22;;;26.29;43.62
80323;BME280;69636;52.372;13.610;2023-06-22T10:53:53;101643.59;;;26.32;43.36
80323;BME280;69636;52.372;13.610;2023-06-22T10:56:22;101640.19;;;26.49;44.04
80323;BME280;69636;52.372;13.610;2023-06-22T10:58:49;101645.03;;;26.47;45.44
80323;BME280;69636;52.372;13.610;2023-06-22T11:01:16;101640.84;;;26.79;44.24
80323;BME280;69636;52.372;13.610;2023-06-22T11:04:01;101639.69;;;27.67;40.89
80323;BME280;69636;52.372;13.610;2023-06-22T11:06:29;101638.75;;;28.23;39.46
80323;BME280;69636;52.372;13.610;2023-06-22T11:08:56;101632.28;;;28.29;42.19
80323;BME280;69636;52.372;13.610;2023-06-22T11:11:39;101631.28;;;28.02;40.82
80323;BME280;69636;52.372;13.610;2023-06-22T11:14:07;101629.97;;;28.77;39.97
80323;BME280;69636;52.372;13.610;2023-06-22T11:16:34;101624.06;;;29.82;36.48
80323;BME280;69636;52.372;13.610;2023-06-22T11:19:01;101618.63;;;30.56;35.97
80323;BME280;69636;52.372;13.610;2023-06-22T11:21:29;101623.50;;;31.01;33.44
80323;BME280;69636;52.372;13.610;2023-06-22T11:23:56;101609.41;;;31.55;33.04
80323;BME280;69636;52.372;13.610;2023-06-22T11:26:24;101604.25;;;31.94;33.44
80323;BME280;69636;52.372;13.610;2023-06-22T11:28:53;101605.84;;;31.60;33.60
80323;BME280;69636;52.372;13.610;2023-06-22T11:31:21;101598.16;;;31.62;32.63
80323;BME280;69636;52.372;13.610;2023-06-22T11:33:54;101602.84;;;32.22;31.39
80323;BME280;69636;52.372;13.610;2023-06-22T11:36:21;101597.38;;;31.92;32.01
80323;BME280;69636;52.372;13.610;2023-06-22T11:38:49;101601.19;;;32.31;31.05
80323;BME280;69636;52.372;13.610;2023-06-22T11:41:16;101594.59;;;32.37;31.83
80323;BME280;69636;52.372;13.610;2023-06-22T11:43:44;101596.81;;;31.75;33.22
80323;BME280;69636;52.372;13.610;2023-06-22T11:46:13;101592.41;;;32.09;33.04
80323;BME280;69636;52.372;13.610;2023-06-22T11:48:40;101589.63;;;32.40;31.44
80323;BME280;69636;52.372;13.610;2023-06-22T11:51:08;101589.66;;;32.29;31.53
80323;BME280;69636;52.372;13.610;2023-06-22T11:53:35;101591.22;;;31.14;33.80
80323;BME280;69636;52.372;13.610;2023-06-22T11:56:03;101588.28;;;31.56;33.20
80323;BME280;69636;52.372;13.610;2023-06-22T11:58:30;101591.31;;;31.85;31.24
80323;BME280;69636;52.372;13.610;2023-06-22T12:00:57;101592.41;;;31.79;32.30
80323;BME280;69636;52.372;13.610;2023-06-22T12:03:26;101598.72;;;32.35;30.83
80323;BME280;69636;52.372;13.610;2023-06-22T12:05:54;101598.44;;;32.11;31.80
80323;BME280;69636;52.372;13.610;2023-06-22T12:08:22;101590.50;;;31.79;32.20
80323;BME280;69636;52.372;13.610;2023-06-22T12:10:50;101584.16;;;31.53;32.51
80323;BME280;69636;52.372;13.610;2023-06-22T12:13:18;101581.94;;;31.50;32.20
80323;BME280;69636;52.372;13.610;2023-06-22T12:15:45;101580.31;;;32.05;31.74
80323;BME280;69636;52.372;13.610;2023-06-22T12:18:12;101569.88;;;32.12;31.18
80323;BME280;69636;52.372;13.610;2023-06-22T12:20:42;101569.06;;;31.56;31.94
80323;BME280;69636;52.372;13.610;2023-06-22T12:23:10;101575.38;;;31.41;32.58
80323;BME280;69636;52.372;13.610;2023-06-22T12:25:37;101559.19;;;31.60;31.07
80323;BME280;69636;52.372;13.610;2023-06-22T12:28:04;101558.66;;;31.88;32.24
80323;BME280;69636;52.372;13.610;2023-06-22T12:30:32;101544.56;;;32.35;31.16
80323;BME280;69636;52.372;13.610;2023-06-22T12:33:00;101554.53;;;31.76;31.49
80323;BME280;69636;52.372;13.610;2023-06-22T12:35:27;101550.88;;;31.19;32.38
80323;BME280;69636;52.372;13.610;2023-06-22T12:37:56;101547.91;;;31.36;33.06
80323;BME280;69636;52.372;13.610;2023-06-22T12:40:24;101550.41;;;31.58;32.48
80323;BME280;69636;52.372;13.610;2023-06-22T12:42:51;101547.09;;;31.61;33.50
80323;BME280;69636;52.372;13.610;2023-06-22T12:45:18;101527.06;;;31.96;30.63